Time;durP1;ratioP1;P1;durP2;ratioP2;P2;SDS_P1;SDS_P2;PMS_P1;PMS_P2;Temp;Humidity;BMP_temperature;BMP_pressure;BME280_temperature;BME280_humidity;BME280_pressure;Samples;Min_cycle;Max_cycle;Signal;HPM_P1;HPM_P2
2022/04/28 00:00:50;;;;;;;17.40;10.40;;;;;;;6.13;78.19;94525.91;5069676;28;20046;-46
2022/04/28 00:03:17;;;;;;;18.13;10.60;;;;;;;6.12;77.80;94533.28;5069776;28;20047;-46
2022/04/28 00:05:43;;;;;;;18.83;10.88;;;;;;;6.15;78.26;94534.47;5069730;28;20040;-46
2022/04/28 00:08:10;;;;;;;19.10;10.85;;;;;;;6.15;78.79;94535.25;5069513;28;20043;-49
2022/04/28 00:10:37;;;;;;;19.53;11.20;;;;;;;6.22;78.18;94531.84;5068848;28;20047;-47
2022/04/28 00:13:07;;;;;;;18.63;11.07;;;;;;;6.25;77.49;94527.59;5060962;28;21774;-50
2022/04/28 00:15:33;;;;;;;19.35;11.35;;;;;;;6.16;78.07;94517.00;5069845;28;20050;-50
2022/04/28 00:18:01;;;;;;;20.20;11.65;;;;;;;6.14;77.82;94530.97;5069540;28;20049;-48
2022/04/28 00:20:27;;;;;;;24.67;11.73;;;;;;;6.15;78.33;94534.47;5069263;28;20045;-50
2022/04/28 00:22:54;;;;;;;20.33;11.40;;;;;;;6.10;78.51;94527.44;5069611;28;20052;-51
2022/04/28 00:25:22;;;;;;;21.30;11.95;;;;;;;6.13;78.35;94525.91;5069783;28;20051;-47
2022/04/28 00:27:50;;;;;;;19.70;11.70;;;;;;;6.09;78.53;94525.84;5067915;28;20045;-50
2022/04/28 00:30:17;;;;;;;20.17;11.90;;;;;;;6.09;78.57;94516.91;5069569;28;20049;-54
2022/04/28 00:32:44;;;;;;;20.65;11.98;;;;;;;6.12;78.63;94519.66;5069387;28;20101;-50
2022/04/28 00:35:11;;;;;;;21.13;12.10;;;;;;;6.17;78.55;94524.00;5068504;28;20063;-51
2022/04/28 00:37:38;;;;;;;20.08;11.98;;;;;;;6.16;78.15;94528.66;5069544;28;20041;-51
2022/04/28 00:40:05;;;;;;;21.40;12.15;;;;;;;6.16;78.54;94525.94;5068176;28;20036;-48
2022/04/28 00:42:32;;;;;;;20.20;11.30;;;;;;;6.11;78.27;94515.34;5069710;28;20049;-49
2022/04/28 00:44:59;;;;;;;23.13;13.32;;;;;;;6.08;78.95;94515.34;5068995;28;20041;-47
2022/04/28 00:52:58;;;;;;;21.70;12.27;;;;;;;6.15;78.63;94520.84;5069237;28;20053;-47
2022/04/28 00:55:27;;;;;;;21.38;11.55;;;;;;;6.22;78.22;94522.88;5069358;28;20048;-51
2022/04/28 00:57:54;;;;;;;19.75;11.68;;;;;;;6.00;78.48;94523.41;5069102;28;20040;-50
2022/04/28 01:00:21;;;;;;;20.37;11.47;;;;;;;5.94;78.20;94524.88;5069375;28;20386;-50
2022/04/28 01:02:47;;;;;;;22.77;11.88;;;;;;;6.06;78.69;94520.38;5069111;28;20062;-47
2022/04/28 01:05:15;;;;;;;20.67;11.20;;;;;;;6.08;78.65;94523.53;5067864;28;20053;-47
2022/04/28 01:07:41;;;;;;;21.50;11.90;;;;;;;5.99;78.88;94513.66;5068723;28;20041;-46
2022/04/28 01:10:08;;;;;;;20.08;11.80;;;;;;;5.84;79.46;94516.59;5068990;28;20028;-50
2022/04/28 01:12:36;;;;;;;21.53;11.83;;;;;;;5.86;79.29;94520.50;5069578;28;20036;-46
2022/04/28 01:15:05;;;;;;;19.95;11.85;;;;;;;5.51;79.60;94509.91;5068494;28;20743;-47
2022/04/28 01:17:32;;;;;;;19.77;10.95;;;;;;;5.63;79.85;94508.91;5069423;28;20114;-53
2022/04/28 01:19:58;;;;;;;19.90;11.05;;;;;;;5.51;79.45;94520.81;5068870;28;20036;-46
2022/04/28 01:22:25;;;;;;;19.70;11.35;;;;;;;5.45;80.59;94514.88;5069019;28;20067;-46
2022/04/28 01:24:52;;;;;;;19.90;10.90;;;;;;;5.53;79.95;94524.75;5068713;28;20159;-48
2022/04/28 01:27:20;;;;;;;19.35;11.38;;;;;;;5.19;80.50;94519.22;5069069;28;20048;-46
2022/04/28 01:29:47;;;;;;;19.77;11.43;;;;;;;5.33;81.70;94523.28;5085304;28;20048;-46
2022/04/28 01:32:13;;;;;;;22.38;12.43;;;;;;;5.81;79.48;94515.38;5073978;28;20041;-48
2022/04/28 01:34:40;;;;;;;19.63;10.88;;;;;;;5.80;79.11;94519.25;5092797;28;20493;-47
2022/04/28 01:37:07;;;;;;;20.83;11.10;;;;;;;5.68;78.97;94514.03;5092672;28;20050;-56
2022/04/28 01:39:34;;;;;;;21.27;12.30;;;;;;;5.64;79.85;94515.94;5093159;28;20044;-50
2022/04/28 01:42:00;;;;;;;19.92;11.45;;;;;;;5.82;79.02;94522.41;5091115;28;20051;-47
2022/04/28 01:44:27;;;;;;;21.10;11.07;;;;;;;5.63;77.94;94523.31;5092746;28;20035;-53
2022/04/28 01:46:54;;;;;;;20.20;11.32;;;;;;;5.31;78.31;94520.94;5092285;28;20050;-47
2022/04/28 01:49:20;;;;;;;20.57;11.07;;;;;;;5.16;78.89;94521.88;5056021;28;20053;-46
2022/04/28 01:57:17;;;;;;;21.85;11.98;;;;;;;4.80;80.62;94522.09;5050010;28;20048;-54
2022/04/28 01:59:44;;;;;;;20.23;11.32;;;;;;;4.87;80.78;94518.72;5052086;28;20048;-52
2022/04/28 02:02:11;;;;;;;20.47;11.40;;;;;;;5.00;81.41;94527.47;5033978;28;20041;-46
2022/04/28 02:04:38;;;;;;;22.50;11.82;;;;;;;4.92;81.23;94523.84;5051861;28;20414;-47
2022/04/28 02:07:09;;;;;;;20.75;11.20;;;;;;;5.11;81.69;94522.16;5052054;28;20151;-50
2022/04/28 02:09:35;;;;;;;21.52;11.80;;;;;;;5.29;80.79;94527.88;5052243;28;20474;-47
2022/04/28 02:12:03;;;;;;;20.98;11.98;;;;;;;5.20;79.83;94528.16;5033513;28;20062;-49
2022/04/28 02:14:30;;;;;;;22.40;11.80;;;;;;;5.29;80.27;94525.97;5051856;28;20045;-51
2022/04/28 02:16:56;;;;;;;20.10;11.63;;;;;;;5.19;79.50;94527.38;5051523;28;20055;-50
2022/04/28 02:19:24;;;;;;;20.98;11.82;;;;;;;4.86;80.18;94522.56;5051708;28;20053;-51
2022/04/28 02:21:51;;;;;;;22.60;12.23;;;;;;;4.85;81.35;94528.38;5051833;28;20056;-46
2022/04/28 02:24:18;;;;;;;22.33;11.77;;;;;;;4.90;81.64;94528.06;5051806;28;20037;-50
2022/04/28 02:26:45;;;;;;;20.93;11.67;;;;;;;4.84;81.23;94527.59;5051321;28;20061;-52
2022/04/28 02:29:12;;;;;;;21.83;12.48;;;;;;;4.83;81.35;94519.78;5051496;28;20055;-50
2022/04/28 02:31:38;;;;;;;23.17;12.55;;;;;;;5.04;81.52;94520.13;5051515;28;20444;-50
2022/04/28 02:34:05;;;;;;;22.52;12.32;;;;;;;5.33;81.08;94528.72;5033942;28;20106;-48
2022/04/28 02:36:32;;;;;;;19.92;11.18;;;;;;;5.40;79.97;94526.13;5050351;28;20045;-50
2022/04/28 02:38:59;;;;;;;19.00;10.47;;;;;;;4.91;81.96;94535.88;5051331;28;20045;-48
2022/04/28 02:41:26;;;;;;;21.33;11.80;;;;;;;4.70;83.43;94532.78;5049505;28;20044;-46
2022/04/28 02:43:52;;;;;;;21.15;11.35;;;;;;;4.80;82.47;94534.91;5049855;28;20052;-46
2022/04/28 02:46:19;;;;;;;19.45;11.07;;;;;;;4.73;82.24;94541.00;5051204;28;20047;-51
2022/04/28 02:48:46;;;;;;;23.58;12.13;;;;;;;4.64;82.69;94537.75;5050700;28;20508;-47
2022/04/28 02:51:13;;;;;;;21.77;11.20;;;;;;;4.75;82.48;94538.72;5049773;28;20048;-49
2022/04/28 02:53:40;;;;;;;20.52;11.13;;;;;;;4.64;82.18;94535.03;5049724;28;20033;-48
2022/04/28 02:56:07;;;;;;;21.35;11.38;;;;;;;4.73;82.21;94541.00;5051483;28;20037;-47
2022/04/28 02:58:34;;;;;;;20.67;11.50;;;;;;;4.66;82.25;94542.81;5051151;28;20055;-49
2022/04/28 03:01:01;;;;;;;21.70;11.50;;;;;;;4.55;82.39;94539.94;5050373;28;20466;-53
2022/04/28 03:03:29;;;;;;;20.97;11.10;;;;;;;4.52;82.63;94535.19;5050978;28;20044;-52
2022/04/28 03:11:26;;;;;;;23.02;12.30;;;;;;;4.26;84.70;94546.75;5050654;28;20099;-49
2022/04/28 03:13:54;;;;;;;21.30;11.55;;;;;;;4.58;83.33;94539.97;5049171;28;20037;-49
2022/04/28 03:16:21;;;;;;;21.03;11.60;;;;;;;4.55;82.31;94543.44;5049540;28;20045;-50
2022/04/28 03:18:49;;;;;;;21.48;11.52;;;;;;;4.52;83.20;94546.06;5049196;28;20045;-51
2022/04/28 03:21:15;;;;;;;20.77;11.55;;;;;;;4.46;82.37;94547.53;5050450;28;20041;-51
2022/04/28 03:23:43;;;;;;;19.77;10.60;;;;;;;4.44;83.04;94549.81;5049037;28;20041;-47
2022/04/28 03:26:10;;;;;;;20.30;10.60;;;;;;;4.53;82.60;94547.66;5050767;28;20045;-46
2022/04/28 03:28:38;;;;;;;21.00;11.27;;;;;;;4.49;82.92;94553.03;5050446;28;20130;-49
2022/04/28 03:31:06;;;;;;;20.60;10.95;;;;;;;4.55;82.56;94556.25;5049768;28;20592;-48
2022/04/28 03:33:33;;;;;;;20.10;11.30;;;;;;;4.47;82.25;94555.31;5050091;28;20229;-51
2022/04/28 03:36:00;;;;;;;22.83;10.98;;;;;;;4.32;83.17;94556.97;5050204;28;20040;-47
2022/04/28 03:38:27;;;;;;;20.48;10.40;;;;;;;4.43;83.01;94551.75;5050151;28;20440;-47
2022/04/28 03:40:54;;;;;;;20.60;10.80;;;;;;;4.45;82.71;94546.75;5048709;28;20106;-53
2022/04/28 03:43:21;;;;;;;21.23;11.73;;;;;;;4.22;83.26;94560.28;5050189;28;20043;-48
2022/04/28 03:45:53;;;;;;;22.00;11.85;;;;;;;4.16;83.84;94570.63;5048701;28;20452;-50
2022/04/28 03:48:19;;;;;;;22.30;11.93;;;;;;;3.77;83.57;94567.16;5048904;28;20049;-54
2022/04/28 03:50:46;;;;;;;22.85;12.52;;;;;;;3.72;84.77;94557.38;5049829;28;20049;-48
2022/04/28 03:53:13;;;;;;;21.37;11.40;;;;;;;3.87;85.23;94565.78;5049643;28;20508;-48
2022/04/28 03:55:40;;;;;;;22.38;10.57;;;;;;;4.02;84.31;94564.94;5049481;28;20041;-54
2022/04/28 03:58:07;;;;;;;22.77;12.45;;;;;;;3.67;85.23;94570.41;5050163;28;20040;-49
2022/04/28 04:00:34;;;;;;;22.92;12.10;;;;;;;3.79;85.11;94576.50;5048784;28;20487;-54
2022/04/28 04:03:01;;;;;;;53.75;27.52;;;;;;;3.88;84.49;94576.28;5049734;28;20048;-49
2022/04/28 04:05:28;;;;;;;26.53;13.80;;;;;;;3.73;83.66;94577.13;5048498;28;20114;-48
2022/04/28 04:07:54;;;;;;;23.50;12.15;;;;;;;3.62;84.47;94584.25;5049497;28;20441;-50
2022/04/28 04:10:21;;;;;;;23.33;12.70;;;;;;;3.53;84.28;94587.19;5048263;28;20061;-52
2022/04/28 04:12:48;;;;;;;24.33;13.32;;;;;;;3.43;84.28;94585.78;5015469;28;20041;-48
2022/04/28 04:15:15;;;;;;;27.55;13.70;;;;;;;3.52;85.06;94591.00;5050248;28;20051;-48
2022/04/28 04:17:45;;;;;;;26.60;13.60;;;;;;;3.48;85.17;94590.97;5049475;28;20041;-46
2022/04/28 04:20:12;;;;;;;27.85;13.68;;;;;;;3.39;85.43;94587.63;5049658;28;20052;-49
2022/04/28 04:22:39;;;;;;;25.88;13.55;;;;;;;3.51;85.55;94590.25;5048892;28;20512;-46
2022/04/28 04:25:08;;;;;;;23.95;12.85;;;;;;;3.64;85.33;94595.53;5049529;28;20039;-50
2022/04/28 04:27:35;;;;;;;28.42;12.57;;;;;;;3.70;85.38;94596.84;5049627;28;20052;-48
2022/04/28 04:32:17;;;;;;;26.17;12.73;;;;;;;3.58;84.97;94590.41;5047990;28;20401;-48
2022/04/28 04:32:49;;;;;;;24.83;13.10;;;;;;;3.77;86.85;94597.00;5049219;28;20041;-47
2022/04/28 04:35:17;;;;;;;28.35;13.38;;;;;;;4.02;87.11;94592.09;5049643;28;20055;-49
2022/04/28 04:37:44;;;;;;;27.40;13.25;;;;;;;4.26;86.40;94592.94;5048937;28;20061;-53
2022/04/28 04:40:12;;;;;;;29.75;13.75;;;;;;;4.50;86.60;94600.78;5049717;28;20429;-51
2022/04/28 04:42:38;;;;;;;31.03;14.27;;;;;;;4.74;85.88;94601.63;5047647;28;20049;-48
2022/04/28 04:45:07;;;;;;;30.50;14.18;;;;;;;4.88;84.71;94601.84;5049477;28;20041;-52
2022/04/28 04:47:34;;;;;;;28.98;14.10;;;;;;;4.98;84.54;94603.19;5049291;28;20041;-50
2022/04/28 04:50:03;;;;;;;28.83;14.13;;;;;;;4.86;82.71;94615.03;5047588;28;20041;-47
2022/04/28 04:52:30;;;;;;;28.48;13.23;;;;;;;4.86;82.69;94611.53;5049181;28;20033;-49
2022/04/28 04:54:58;;;;;;;28.87;13.67;;;;;;;5.00;83.35;94614.50;5049037;28;20051;-49
2022/04/28 04:57:24;;;;;;;28.38;13.23;;;;;;;5.16;83.46;94614.38;5049010;28;20040;-50
2022/04/28 04:59:51;;;;;;;29.95;13.82;;;;;;;5.17;83.38;94622.19;5048750;28;20052;-54
2022/04/28 05:02:18;;;;;;;24.42;12.48;;;;;;;5.11;82.13;94620.13;5034009;28;20044;-51
2022/04/28 05:04:45;;;;;;;24.77;12.35;;;;;;;5.17;82.24;94624.09;5029644;28;20043;-51
2022/04/28 05:07:12;;;;;;;25.10;12.67;;;;;;;5.27;82.21;94628.97;5036788;28;20044;-52
2022/04/28 05:09:40;;;;;;;27.58;13.15;;;;;;;5.34;82.79;94614.66;5052072;28;20045;-46
2022/04/28 05:12:08;;;;;;;27.95;13.65;;;;;;;5.49;82.29;94624.63;5052811;28;20067;-49
2022/04/28 05:14:38;;;;;;;26.70;13.00;;;;;;;5.66;81.54;94625.28;5052267;28;20037;-51
2022/04/28 05:17:06;;;;;;;29.55;13.10;;;;;;;5.79;81.48;94623.91;5052804;28;20056;-49
2022/04/28 05:19:33;;;;;;;25.60;12.97;;;;;;;5.89;81.01;94636.09;5052462;28;20059;-51
2022/04/28 05:22:00;;;;;;;26.33;12.93;;;;;;;5.99;80.39;94639.00;5053138;28;20041;-50
2022/04/28 05:24:27;;;;;;;26.00;13.38;;;;;;;6.08;80.53;94632.50;5053105;28;20079;-49
2022/04/28 05:26:54;;;;;;;28.70;13.32;;;;;;;6.25;79.80;94642.06;5052454;28;20596;-46
2022/04/28 05:29:20;;;;;;;25.27;12.95;;;;;;;6.24;79.33;94637.75;5051332;28;20695;-56
2022/04/28 05:31:47;;;;;;;26.53;12.43;;;;;;;6.37;78.84;94641.81;5051901;28;20040;-46
2022/04/28 05:34:14;;;;;;;25.42;12.65;;;;;;;6.49;78.61;94638.06;5052870;28;20043;-49
2022/04/28 05:36:43;;;;;;;26.23;13.15;;;;;;;6.62;78.11;94641.34;5051747;28;20220;-52
2022/04/28 05:39:10;;;;;;;25.42;12.98;;;;;;;6.56;78.31;94638.94;5052466;28;20051;-49
2022/04/28 05:41:37;;;;;;;24.50;12.43;;;;;;;6.66;77.76;94640.25;5052131;28;20051;-53
2022/04/28 05:46:53;;;;;;;24.13;11.60;;;;;;;6.85;77.28;94644.72;5051134;28;20041;-51
2022/04/28 05:49:21;;;;;;;22.75;12.40;;;;;;;7.00;75.70;94645.63;5052227;28;20048;-48
2022/04/28 05:51:48;;;;;;;23.38;12.45;;;;;;;7.00;75.84;94643.72;5050575;28;20049;-51
2022/04/28 05:54:16;;;;;;;20.33;10.82;;;;;;;7.17;75.04;94647.00;5050785;28;20049;-48
2022/04/28 05:56:42;;;;;;;21.40;11.27;;;;;;;7.19;74.77;94658.31;5050381;28;20043;-49
2022/04/28 05:59:10;;;;;;;19.58;11.00;;;;;;;7.34;73.93;94649.06;5052403;28;20047;-48
2022/04/28 06:01:38;;;;;;;20.08;11.13;;;;;;;7.38;73.54;94649.91;5051917;28;20044;-48
2022/04/28 06:04:06;;;;;;;21.90;11.48;;;;;;;7.55;72.90;94656.69;5051102;28;21584;-47
2022/04/28 06:06:38;;;;;;;19.15;10.18;;;;;;;7.93;71.54;94659.31;5051558;28;20525;-50
2022/04/28 06:09:05;;;;;;;17.80;9.87;;;;;;;8.96;69.82;94663.75;5050665;28;20049;-51
2022/04/28 06:11:32;;;;;;;16.85;10.05;;;;;;;12.21;58.42;94665.09;5051800;28;20044;-47
2022/04/28 06:13:59;;;;;;;16.15;10.25;;;;;;;15.22;48.91;94663.34;5050406;28;20045;-47
2022/04/28 06:16:26;;;;;;;14.82;9.75;;;;;;;17.10;43.29;94660.34;5050940;28;20048;-54
2022/04/28 06:18:53;;;;;;;13.85;10.20;;;;;;;17.66;41.20;94665.41;5051155;28;20049;-50
2022/04/28 06:21:19;;;;;;;12.17;9.50;;;;;;;17.83;38.98;94665.31;5051425;28;20057;-56
2022/04/28 06:23:46;;;;;;;12.18;9.25;;;;;;;18.02;39.95;94671.91;5050217;28;20064;-51
2022/04/28 06:26:13;;;;;;;12.77;9.02;;;;;;;19.27;35.52;94675.97;5051419;28;20041;-50
2022/04/28 06:28:40;;;;;;;15.48;9.07;;;;;;;18.98;37.18;94683.81;5049056;28;20508;-50
2022/04/28 06:31:08;;;;;;;10.55;8.60;;;;;;;19.89;34.28;94680.03;5051078;28;20037;-55
2022/04/28 06:33:39;;;;;;;11.13;9.10;;;;;;;18.12;37.63;94684.66;5050821;28;20405;-51
2022/04/28 06:36:06;;;;;;;10.30;8.27;;;;;;;21.67;32.37;94681.31;5050849;28;20597;-51
2022/04/28 06:38:40;;;;;;;9.85;8.32;;;;;;;20.87;31.42;94678.44;5050717;28;20108;-53
2022/04/28 06:41:06;;;;;;;12.02;8.85;;;;;;;17.82;37.26;94683.19;5051104;28;20045;-54
2022/04/28 06:43:33;;;;;;;10.98;7.93;;;;;;;21.72;31.76;94678.66;5051041;28;20036;-51
2022/04/28 06:46:12;;;;;;;8.80;7.07;;;;;;;22.69;29.29;94682.44;5050902;28;20045;-52
2022/04/28 06:48:39;;;;;;;7.95;6.72;;;;;;;24.35;27.13;94676.50;5049610;28;20041;-52
2022/04/28 06:51:05;;;;;;;9.20;6.47;;;;;;;24.80;26.42;94672.31;5050315;28;20037;-48
2022/04/28 06:53:32;;;;;;;8.85;6.60;;;;;;;24.77;25.19;94676.09;5051357;28;20071;-52
2022/04/28 06:55:59;;;;;;;8.13;6.80;;;;;;;19.50;32.06;94682.31;5051197;28;20049;-48
2022/04/28 06:58:26;;;;;;;7.67;6.53;;;;;;;19.91;32.09;94683.16;5049767;28;20467;-53
2022/04/28 07:00:53;;;;;;;7.55;5.65;;;;;;;22.09;29.16;94674.97;5049684;28;20049;-51
2022/04/28 07:03:20;;;;;;;7.90;6.25;;;;;;;23.32;27.55;94687.25;5051155;28;20037;-52
2022/04/28 07:05:47;;;;;;;7.38;5.70;;;;;;;25.88;24.75;94675.00;5050292;28;20037;-51
2022/04/28 07:08:14;;;;;;;7.90;6.68;;;;;;;19.73;29.42;94687.41;5050970;28;20045;-53
2022/04/28 07:10:41;;;;;;;7.83;6.73;;;;;;;17.24;34.86;94692.44;5049283;28;20049;-55
2022/04/28 07:13:08;;;;;;;10.13;5.85;;;;;;;22.27;28.74;94686.09;5051265;28;20040;-53
2022/04/28 07:15:38;;;;;;;6.93;5.70;;;;;;;19.65;31.59;94691.66;5050963;28;20053;-51
2022/04/28 07:18:05;;;;;;;8.35;5.38;;;;;;;21.94;28.38;94686.81;5032643;28;20041;-51
2022/04/28 07:20:35;;;;;;;6.57;5.10;;;;;;;24.79;24.14;94682.00;5050341;28;20075;-56
2022/04/28 07:23:02;;;;;;;7.60;5.10;;;;;;;26.24;22.70;94694.50;5050009;28;20071;-54
2022/04/28 07:25:30;;;;;;;6.20;4.78;;;;;;;27.61;20.79;94689.84;5050395;28;20045;-49
2022/04/28 07:27:57;;;;;;;5.50;4.82;;;;;;;27.86;20.72;94681.66;5049556;28;20044;-53
2022/04/28 07:30:26;;;;;;;6.30;5.22;;;;;;;21.77;26.55;94696.03;5050216;28;20037;-46
2022/04/28 07:32:53;;;;;;;5.85;4.90;;;;;;;20.77;28.47;94696.41;5050108;28;20040;-50
2022/04/28 07:35:23;;;;;;;6.23;5.10;;;;;;;18.15;31.84;94712.34;5050692;28;20067;-48
2022/04/28 07:37:51;;;;;;;7.07;5.20;;;;;;;17.86;32.53;94704.09;5050089;28;20056;-45
2022/04/28 07:40:24;;;;;;;6.32;5.18;;;;;;;20.39;29.25;94700.34;5050662;28;20094;-51
2022/04/28 07:42:51;;;;;;;6.30;4.60;;;;;;;24.05;24.29;94699.00;5048307;28;20049;-51
2022/04/28 07:45:17;;;;;;;6.72;4.72;;;;;;;22.33;25.57;94714.97;5050186;28;20043;-52
2022/04/28 07:47:44;;;;;;;8.03;4.73;;;;;;;22.55;25.14;94699.94;5049168;28;20056;-48
2022/04/28 07:50:11;;;;;;;6.28;4.68;;;;;;;21.68;26.90;94708.03;5050479;28;20037;-47
2022/04/28 07:52:38;;;;;;;6.20;4.78;;;;;;;21.11;27.65;94711.31;5049484;28;20045;-52
2022/04/28 07:55:06;;;;;;;8.88;4.78;;;;;;;19.84;29.27;94714.84;5050506;28;20049;-48
2022/04/28 07:57:32;;;;;;;6.50;4.88;;;;;;;18.80;30.46;94717.81;5050024;28;20504;-47
2022/04/28 07:59:59;;;;;;;6.10;5.03;;;;;;;18.07;32.16;94715.75;5048316;28;20041;-51
2022/04/28 08:02:26;;;;;;;8.13;5.63;;;;;;;19.78;29.45;94705.53;5050186;28;20043;-49
2022/04/28 08:04:53;;;;;;;5.60;4.30;;;;;;;23.63;25.09;94722.47;5049447;28;20044;-50
2022/04/28 08:07:20;;;;;;;6.38;4.80;;;;;;;23.13;24.68;94726.63;5050001;28;20482;-50
2022/04/28 08:09:47;;;;;;;6.38;4.70;;;;;;;25.08;22.42;94714.00;5049388;28;20041;-50
2022/04/28 08:12:14;;;;;;;6.20;4.90;;;;;;;18.50;29.54;94739.41;5050234;28;20404;-49
2022/04/28 08:15:01;;;;;;;5.95;4.68;;;;;;;20.67;27.55;94717.94;5049623;28;20400;-48
2022/04/28 08:17:28;;;;;;;7.00;5.10;;;;;;;25.07;22.19;94718.84;5050117;28;20037;-50
2022/04/28 08:19:54;;;;;;;6.53;4.78;;;;;;;23.57;22.57;94719.56;5049198;28;20053;-50
2022/04/28 08:22:24;;;;;;;6.70;5.07;;;;;;;23.29;22.97;94728.19;5050069;28;20041;-52
2022/04/28 08:24:51;;;;;;;7.30;4.67;;;;;;;22.13;24.50;94721.09;5049201;28;20052;-51
2022/04/28 08:27:17;;;;;;;6.18;4.93;;;;;;;20.80;25.91;94722.59;5050051;28;20063;-49
2022/04/28 08:29:44;;;;;;;6.72;4.63;;;;;;;23.22;23.04;94734.19;5049156;28;20049;-50
2022/04/28 08:32:12;;;;;;;5.90;4.75;;;;;;;23.45;21.87;94721.38;5048527;28;20056;-46
2022/04/28 08:34:38;;;;;;;8.27;4.70;;;;;;;23.31;22.24;94738.94;5049086;28;20150;-50
2022/04/28 08:37:06;;;;;;;7.43;4.83;;;;;;;24.85;21.46;94730.56;5048292;28;20063;-50
2022/04/28 08:39:32;;;;;;;6.78;4.93;;;;;;;25.68;20.54;94731.31;5047489;28;20067;-53
2022/04/28 08:42:00;;;;;;;6.88;4.88;;;;;;;22.71;22.51;94735.88;5049091;28;20401;-50
2022/04/28 08:44:28;;;;;;;6.97;5.13;;;;;;;19.58;26.36;94746.84;5049887;28;20045;-49
2022/04/28 08:46:55;;;;;;;7.40;4.90;;;;;;;18.59;28.87;94752.63;5048804;28;20118;-49
2022/04/28 08:49:25;;;;;;;5.40;4.50;;;;;;;22.09;24.05;94730.88;5049168;28;20064;-49
2022/04/28 08:51:54;;;;;;;7.05;4.80;;;;;;;23.45;21.56;94732.59;5048385;28;20040;-51
2022/04/28 08:54:23;;;;;;;5.63;4.63;;;;;;;22.24;23.55;94736.59;5049503;28;20071;-50
2022/04/28 08:56:51;;;;;;;6.40;4.70;;;;;;;19.99;25.70;94733.81;5048781;28;20045;-49
2022/04/28 08:59:20;;;;;;;7.15;4.60;;;;;;;23.52;22.88;94749.03;5049698;28;20041;-50
2022/04/28 09:01:47;;;;;;;5.60;4.50;;;;;;;23.02;21.82;94740.41;5048912;28;20075;-50
2022/04/28 09:04:14;;;;;;;6.72;4.55;;;;;;;19.83;25.33;94746.72;5048232;28;20041;-52
2022/04/28 09:06:42;;;;;;;6.20;4.55;;;;;;;22.59;22.68;94745.28;5049033;28;20045;-53
2022/04/28 09:09:17;;;;;;;5.22;4.20;;;;;;;22.50;23.52;94750.94;5049384;28;20033;-54
2022/04/28 09:11:45;;;;;;;5.95;4.45;;;;;;;22.13;22.58;94745.44;5048624;28;20045;-53
2022/04/28 09:14:18;;;;;;;7.00;4.50;;;;;;;21.38;23.54;94743.25;5050883;28;20509;-50
2022/04/28 09:16:52;;;;;;;7.00;5.00;;;;;;;19.74;25.17;94757.81;5048629;28;20072;-53
2022/04/28 09:19:28;;;;;;;6.13;4.70;;;;;;;23.32;21.78;94741.25;5049041;28;20158;-51
2022/04/28 09:22:00;;;;;;;5.68;4.00;;;;;;;27.02;17.77;94746.97;5048816;28;20067;-50
2022/04/28 09:24:28;;;;;;;6.60;4.47;;;;;;;19.10;25.63;94753.31;5048263;28;20059;-49
2022/04/28 09:26:55;;;;;;;6.80;4.27;;;;;;;21.74;22.20;94756.44;5048741;28;20049;-53
2022/04/28 09:29:24;;;;;;;5.90;4.30;;;;;;;20.50;24.65;94764.81;5062077;28;20067;-51
2022/04/28 09:31:52;;;;;;;5.10;3.90;;;;;;;20.02;23.57;94730.88;5067239;28;20404;-49
2022/04/28 09:34:49;;;;;;;6.85;5.07;;;;;;;17.50;27.91;94746.78;5068647;28;20113;-48
2022/04/28 09:37:20;;;;;;;6.10;4.32;;;;;;;21.12;23.46;94752.69;5069400;28;20056;-54
2022/04/28 09:42:42;;;;;;;5.43;3.60;;;;;;;21.18;23.05;94747.28;5068546;28;20048;-51
2022/04/28 09:45:12;;;;;;;4.72;3.42;;;;;;;22.25;21.18;94733.31;5069228;28;20040;-54
2022/04/28 09:47:39;;;;;;;6.50;4.10;;;;;;;20.39;23.57;94752.53;5066979;28;20078;-50
2022/04/28 09:50:13;;;;;;;5.63;4.10;;;;;;;21.74;22.08;94743.22;5069142;28;20050;-53
2022/04/28 09:52:43;;;;;;;5.80;4.80;;;;;;;17.50;27.83;94752.31;5070243;28;20036;-51
2022/04/28 09:55:10;;;;;;;8.00;4.25;;;;;;;20.63;25.45;94734.03;5071267;28;20070;-51
2022/04/28 09:57:37;;;;;;;5.22;3.60;;;;;;;22.08;21.39;94724.50;5072341;28;20055;-57
2022/04/28 10:00:05;;;;;;;4.88;3.50;;;;;;;22.14;22.75;94728.22;5091827;28;20064;-53
2022/04/28 10:02:32;;;;;;;6.05;3.88;;;;;;;21.73;23.53;94741.69;5092400;28;20483;-51
2022/04/28 10:05:03;;;;;;;6.07;4.40;;;;;;;20.65;24.94;94737.16;5092177;28;20369;-49
2022/04/28 10:07:31;;;;;;;5.93;4.70;;;;;;;20.80;24.81;94737.31;5086377;28;20041;-51
2022/04/28 10:09:59;;;;;;;6.88;4.82;;;;;;;19.03;26.11;94747.19;5052360;28;20053;-52
2022/04/28 10:12:26;;;;;;;6.25;4.35;;;;;;;23.01;22.38;94736.00;5052152;28;20424;-50
2022/04/28 10:14:54;;;;;;;6.00;4.20;;;;;;;24.32;20.74;94732.31;5051558;28;20056;-49
2022/04/28 10:17:26;;;;;;;5.80;4.40;;;;;;;20.61;24.36;94746.91;5051410;28;20037;-53
2022/04/28 10:19:59;;;;;;;6.35;4.20;;;;;;;19.19;27.24;94754.59;5050750;28;20061;-52
2022/04/28 10:22:32;;;;;;;5.93;4.63;;;;;;;21.32;23.20;94751.47;5050746;28;20033;-54
2022/04/28 10:33:26;;;;;;;5.65;4.20;;;;;;;19.21;25.33;94743.78;5032173;28;20034;-49
2022/04/28 10:35:56;;;;;;;5.43;4.28;;;;;;;18.44;26.89;94741.19;5030616;28;20051;-54
2022/04/28 10:38:38;;;;;;;7.47;5.00;;;;;;;16.45;30.43;94738.88;5046970;28;20048;-51
2022/04/28 10:41:10;;;;;;;6.85;4.53;;;;;;;19.42;26.12;94731.09;5031036;28;20862;-49
2022/04/28 10:43:39;;;;;;;6.97;4.40;;;;;;;20.30;25.27;94740.13;5031932;28;20109;-50
2022/04/28 10:46:08;;;;;;;5.88;4.40;;;;;;;21.29;23.82;94753.19;5038836;28;20429;-52
2022/04/28 10:48:43;;;;;;;8.18;4.50;;;;;;;22.92;22.55;94730.50;5031811;28;20045;-46
2022/04/28 10:51:32;;;;;;;7.28;4.65;;;;;;;22.47;22.03;94738.66;5030692;28;20880;-51
2022/04/28 10:54:21;;;;;;;6.50;5.03;;;;;;;18.48;27.70;94739.84;5030589;28;20916;-52
2022/04/28 10:56:54;;;;;;;7.10;4.80;;;;;;;20.60;26.35;94745.34;5031068;28;20522;-51
2022/04/28 10:59:28;;;;;;;7.28;4.85;;;;;;;22.22;23.58;94744.66;5031723;28;20037;-48
2022/04/28 11:01:56;;;;;;;7.43;5.90;;;;;;;18.52;28.29;94748.84;5030624;28;20126;-54
2022/04/28 11:04:24;;;;;;;7.95;5.45;;;;;;;17.69;29.79;94747.06;5030911;28;20045;-50
2022/04/28 11:06:56;;;;;;;6.88;5.00;;;;;;;18.09;29.51;94738.31;5031239;28;20046;-51
2022/04/28 11:09:33;;;;;;;6.70;4.80;;;;;;;16.84;32.38;94751.78;5051219;28;20102;-51
2022/04/28 11:12:07;;;;;;;7.47;5.00;;;;;;;17.42;31.73;94750.97;5049219;28;20045;-51
2022/04/28 11:14:44;;;;;;;6.15;4.53;;;;;;;17.30;31.47;94744.16;5051426;28;20037;-50
2022/04/28 11:17:11;;;;;;;7.30;4.93;;;;;;;17.60;31.33;94746.91;5048843;28;20483;-51
2022/04/28 11:19:40;;;;;;;7.22;4.75;;;;;;;17.22;31.75;94767.78;5050404;28;20055;-47
2022/04/28 11:22:06;;;;;;;8.97;6.10;;;;;;;15.64;33.35;94762.44;5049756;28;20049;-46
2022/04/28 11:24:34;;;;;;;7.63;5.45;;;;;;;16.86;32.07;94754.09;5049901;28;20043;-46
2022/04/28 11:27:01;;;;;;;7.65;5.40;;;;;;;15.87;35.01;94742.97;5050263;28;20041;-47
2022/04/28 11:29:28;;;;;;;10.25;5.72;;;;;;;15.72;34.75;94750.00;5050724;28;20045;-50
2022/04/28 11:31:55;;;;;;;8.85;6.18;;;;;;;14.52;36.31;94764.50;5049803;28;20049;-50
2022/04/28 11:34:22;;;;;;;6.90;4.70;;;;;;;16.11;35.03;94754.69;5050531;28;20047;-46
2022/04/28 11:36:48;;;;;;;7.85;5.70;;;;;;;14.64;37.38;94762.38;5049945;28;20048;-52
2022/04/28 11:39:15;;;;;;;7.95;5.97;;;;;;;14.18;38.37;94764.66;5050443;28;20049;-45
2022/04/28 11:41:43;;;;;;;9.18;5.75;;;;;;;15.30;36.42;94756.00;5048616;28;20045;-57
2022/04/28 11:44:13;;;;;;;9.07;5.38;;;;;;;16.07;34.48;94759.53;5050333;28;20115;-49
2022/04/28 11:46:51;;;;;;;7.73;5.60;;;;;;;15.40;35.38;94754.22;5048832;28;20043;-46
2022/04/28 11:49:18;;;;;;;7.80;5.60;;;;;;;15.98;34.68;94762.91;5050169;28;20044;-48
2022/04/28 11:51:46;;;;;;;7.38;5.10;;;;;;;14.31;37.03;94771.16;5049449;28;20044;-51
2022/04/28 11:54:25;;;;;;;7.60;5.65;;;;;;;14.35;36.14;94769.13;5050176;28;20437;-49
2022/04/28 11:57:07;;;;;;;8.27;5.80;;;;;;;14.15;36.16;94765.50;5049591;28;20121;-46
2022/04/28 11:59:38;;;;;;;7.87;5.00;;;;;;;14.53;36.71;94765.31;5049267;28;20049;-52
2022/04/28 12:02:23;;;;;;;8.32;5.07;;;;;;;14.80;35.65;94770.78;5049048;28;20732;-53
2022/04/28 12:04:50;;;;;;;7.50;5.00;;;;;;;15.04;36.32;94760.47;5049795;28;20102;-55